Time,TemperatureF,DewpointF,PressureIn,WindDirection,WindDirectionDegrees,WindSpeedMPH,WindSpeedGustMPH,Humidity,HourlyPrecipIn,Conditions,Clouds,dailyrainin,SoftwareType,DateUTC
2013-02-06 00:02:00,2.1,-0.4,30.05,WSW,243,0.0,0.0,89,0.00,,,0.00,VWS V14.01,2013-02-06 06:02:00,
2013-02-06 00:07:00,2.1,-0.4,30.05,WSW,244,0.0,0.0,89,0.00,,,0.00,VWS V14.01,2013-02-06 06:07:00,
2013-02-06 00:12:00,2.0,-0.5,30.05,WSW,243,0.0,0.0,89,0.00,,,0.00,VWS V14.01,2013-02-06 06:12:00,
2013-02-06 00:17:00,1.6,-1.1,30.06,WSW,243,0.0,0.0,88,0.00,,,0.00,VWS V14.01,2013-02-06 06:17:00,
2013-02-06 00:23:00,1.5,-1.2,30.05,WSW,243,0.0,0.0,88,0.00,,CLR,0.00,VWS V14.01,2013-02-06 06:23:00,
2013-02-06 00:28:00,1.4,-1.3,30.05,WSW,243,0.0,0.0,88,0.00,,CLR,0.00,VWS V14.01,2013-02-06 06:28:00,
2013-02-06 00:33:00,1.4,-1.3,30.06,WSW,243,0.0,0.0,88,0.00,,CLR,0.00,VWS V14.01,2013-02-06 06:33:00,
2013-02-06 00:38:00,1.4,-1.1,30.06,WSW,243,0.0,0.0,89,0.00,,CLR,0.00,VWS V14.01,2013-02-06 06:38:00,
2013-02-06 00:44:00,1.5,-1.0,30.06,WSW,243,0.0,0.0,89,0.00,,,0.00,VWS V14.01,2013-02-06 06:44:00,
2013-02-06 00:49:00,1.9,-0.3,30.06,WSW,243,0.0,0.0,90,0.00,,,0.00,VWS V14.01,2013-02-06 06:49:00,
2013-02-06 00:55:00,2.2,-0.1,30.07,WSW,243,0.0,0.0,90,0.00,,,0.00,VWS V14.01,2013-02-06 06:55:00,
2013-02-06 01:00:00,2.3,0.0,30.07,WSW,243,0.0,0.0,90,0.00,,,0.00,VWS V14.01,2013-02-06 07:00:00,
2013-02-06 01:06:00,2.3,-0.2,30.07,WSW,243,0.0,0.0,89,0.00,,,0.00,VWS V14.01,2013-02-06 07:06:00,
2013-02-06 01:12:00,2.2,-0.3,30.06,WSW,243,0.0,0.0,89,0.00,,,0.00,VWS V14.01,2013-02-06 07:12:00,
2013-02-06 01:17:00,2.2,-0.3,30.06,WSW,243,0.0,0.0,89,0.00,,,0.00,VWS V14.01,2013-02-06 07:17:00,
2013-02-06 01:22:00,2.2,-0.3,30.06,WSW,243,0.0,0.0,89,0.00,,CLR,0.00,VWS V14.01,2013-02-06 07:22:00,
2013-02-06 01:28:00,2.2,-0.3,30.07,WSW,243,0.0,0.0,89,0.00,,CLR,0.00,VWS V14.01,2013-02-06 07:28:00,
2013-02-06 01:33:00,2.0,-0.5,30.07,WSW,243,0.0,0.0,89,0.00,,CLR,0.00,VWS V14.01,2013-02-06 07:33:00,
2013-02-06 01:38:00,1.9,-0.8,30.07,WSW,243,0.0,0.0,88,0.00,,CLR,0.00,VWS V14.01,2013-02-06 07:38:00,
2013-02-06 01:43:00,1.8,-0.7,30.07,WSW,243,0.0,0.0,89,0.00,,,0.00,VWS V14.01,2013-02-06 07:43:00,
2013-02-06 01:48:00,1.9,-0.6,30.07,WSW,243,0.0,0.0,89,0.00,,,0.00,VWS V14.01,2013-02-06 07:48:00,
2013-02-06 01:53:00,1.8,-0.7,30.07,WSW,243,0.0,0.0,89,0.00,,,0.00,VWS V14.01,2013-02-06 07:53:00,
2013-02-06 01:58:00,1.6,-1.1,30.07,WSW,243,0.0,0.0,88,0.00,,,0.00,VWS V14.01,2013-02-06 07:58:00,
2013-02-06 02:03:00,1.7,-0.8,30.08,WSW,243,0.0,0.0,89,0.00,,CLR,0.00,VWS V14.01,2013-02-06 08:03:00,
2013-02-06 02:09:00,2.2,-0.1,30.08,WSW,243,0.0,0.0,90,0.00,,CLR,0.00,VWS V14.01,2013-02-06 08:09:00,
2013-02-06 02:14:00,2.4,0.1,30.08,WSW,244,0.0,0.0,90,0.00,,CLR,0.00,VWS V14.01,2013-02-06 08:14:00,
2013-02-06 02:19:00,2.5,0.0,30.09,WSW,243,0.0,0.0,89,0.00,,CLR,0.00,VWS V14.01,2013-02-06 08:19:00,
2013-02-06 02:25:00,2.7,0.4,30.08,WSW,243,0.0,0.0,90,0.00,,SCT040,0.00,VWS V14.01,2013-02-06 08:25:00,
2013-02-06 02:30:00,2.7,0.2,30.08,WSW,243,0.0,0.0,89,0.00,,SCT040,0.00,VWS V14.01,2013-02-06 08:30:00,
2013-02-06 02:36:00,2.3,-0.2,30.08,WSW,243,0.0,0.0,89,0.00,,SCT040,0.00,VWS V14.01,2013-02-06 08:36:00,
2013-02-06 02:42:00,2.3,-0.2,30.08,WSW,243,0.0,0.0,89,0.00,,,0.00,VWS V14.01,2013-02-06 08:42:00,
2013-02-06 02:47:00,2.2,-0.3,30.08,WSW,243,0.0,0.0,89,0.00,,,0.00,VWS V14.01,2013-02-06 08:47:00,
2013-02-06 02:52:00,2.3,-0.2,30.08,WSW,243,0.0,0.0,89,0.00,,,0.00,VWS V14.01,2013-02-06 08:52:00,
2013-02-06 02:57:00,2.3,-0.2,30.07,WSW,243,0.0,0.0,89,0.00,,,0.00,VWS V14.01,2013-02-06 08:57:00,
2013-02-06 03:02:00,2.3,-0.2,30.07,WSW,243,0.0,0.0,89,0.00,,,0.00,VWS V14.01,2013-02-06 09:02:00,
2013-02-06 03:07:00,1.9,-0.8,30.07,WSW,243,0.0,0.0,88,0.00,,,0.00,VWS V14.01,2013-02-06 09:07:00,
2013-02-06 03:12:00,1.5,-1.5,30.07,WSW,243,0.0,0.0,87,0.00,,,0.00,VWS V14.01,2013-02-06 09:12:00,
2013-02-06 03:18:00,1.1,-1.9,30.06,WSW,243,0.0,0.0,87,0.00,,,0.00,VWS V14.01,2013-02-06 09:18:00,
2013-02-06 03:23:00,1.0,-2.0,30.06,WSW,243,0.0,0.0,87,0.00,,CLR,0.00,VWS V14.01,2013-02-06 09:23:00,
2013-02-06 03:28:00,1.4,-1.1,30.06,WSW,243,0.0,0.0,89,0.00,,CLR,0.00,VWS V14.01,2013-02-06 09:28:00,
2013-02-06 03:33:00,1.5,-1.0,30.05,WSW,243,0.0,0.0,89,0.00,,CLR,0.00,VWS V14.01,2013-02-06 09:33:00,
2013-02-06 03:38:00,1.3,-1.4,30.05,WSW,243,0.0,0.0,88,0.00,,CLR,0.00,VWS V14.01,2013-02-06 09:38:00,
2013-02-06 03:43:00,1.1,-1.6,30.04,WSW,243,0.0,0.0,88,0.00,,CLR,0.00,VWS V14.01,2013-02-06 09:43:00,
2013-02-06 03:48:00,0.8,-2.2,30.04,WSW,243,0.0,0.0,87,0.00,,CLR,0.00,VWS V14.01,2013-02-06 09:48:00,
2013-02-06 03:53:00,0.6,-2.3,30.05,WSW,243,0.0,0.0,87,0.00,,CLR,0.00,VWS V14.01,2013-02-06 09:53:00,
2013-02-06 03:59:00,0.2,-2.7,30.05,WSW,243,0.0,0.0,87,0.00,,CLR,0.00,VWS V14.01,2013-02-06 09:59:00,
2013-02-06 04:04:00,-0.2,-3.4,30.04,WSW,243,0.0,0.0,86,0.00,,CLR,0.00,VWS V14.01,2013-02-06 10:04:00,
2013-02-06 04:10:00,-0.3,-3.2,30.04,WSW,243,0.0,0.0,87,0.00,,CLR,0.00,VWS V14.01,2013-02-06 10:10:00,
2013-02-06 04:15:00,-0.4,-3.3,30.04,WSW,243,0.0,0.0,87,0.00,,CLR,0.00,VWS V14.01,2013-02-06 10:15:00,
2013-02-06 04:20:00,-0.4,-3.3,30.05,WSW,243,0.0,0.0,87,0.00,,CLR,0.00,VWS V14.01,2013-02-06 10:20:00,
2013-02-06 04:26:00,-0.6,-3.5,30.04,WSW,243,0.0,0.0,87,0.00,,CLR,0.00,VWS V14.01,2013-02-06 10:26:00,
2013-02-06 04:31:00,-0.6,-3.5,30.04,WSW,243,0.0,0.0,87,0.00,,CLR,0.00,VWS V14.01,2013-02-06 10:31:00,
2013-02-06 04:37:00,-0.7,-3.4,30.04,WSW,243,0.0,0.0,88,0.00,,CLR,0.00,VWS V14.01,2013-02-06 10:37:00,
2013-02-06 04:42:00,-0.3,-3.0,30.03,WSW,243,0.0,0.0,88,0.00,,CLR,0.00,VWS V14.01,2013-02-06 10:42:00,
2013-02-06 04:47:00,0.1,-2.4,30.03,WSW,243,0.0,0.0,89,0.00,,CLR,0.00,VWS V14.01,2013-02-06 10:47:00,
2013-02-06 04:52:00,0.5,-2.0,30.03,WSW,243,0.0,0.0,89,0.00,,CLR,0.00,VWS V14.01,2013-02-06 10:52:00,
2013-02-06 04:58:00,1.8,-0.2,30.05,South,178,2.0,3.0,91,0.00,,CLR,0.00,VWS V14.01,2013-02-06 10:58:00,
2013-02-06 05:04:00,2.8,0.8,30.04,South,178,0.0,0.0,91,0.00,,CLR,0.00,VWS V14.01,2013-02-06 11:04:00,
2013-02-06 05:09:00,3.5,1.5,30.05,South,178,0.0,1.0,91,0.00,,CLR,0.00,VWS V14.01,2013-02-06 11:09:00,
2013-02-06 05:15:00,4.1,2.1,30.05,South,177,0.0,1.0,91,0.00,,CLR,0.00,VWS V14.01,2013-02-06 11:15:00,
2013-02-06 05:20:00,4.5,2.5,30.05,SSE,153,0.0,1.0,91,0.00,,CLR,0.00,VWS V14.01,2013-02-06 11:20:00,
2013-02-06 05:26:00,4.8,2.8,30.05,SSE,157,0.0,0.0,91,0.00,,SCT090,0.00,VWS V14.01,2013-02-06 11:26:00,
2013-02-06 05:31:00,4.9,2.6,30.05,SSE,157,0.0,0.0,90,0.00,,SCT090,0.00,VWS V14.01,2013-02-06 11:31:00,
2013-02-06 05:36:00,5.0,2.7,30.06,SSE,157,0.0,0.0,90,0.00,,SCT090,0.00,VWS V14.01,2013-02-06 11:36:00,
2013-02-06 05:42:00,5.0,2.7,30.06,SSE,157,0.0,0.0,90,0.00,,OVC090,0.00,VWS V14.01,2013-02-06 11:42:00,
2013-02-06 05:48:00,4.9,2.4,30.06,SSE,157,0.0,0.0,89,0.00,,OVC090,0.00,VWS V14.01,2013-02-06 11:48:00,
2013-02-06 05:54:00,4.9,2.6,30.06,SSE,157,1.0,2.0,90,0.00,,OVC090,0.00,VWS V14.01,2013-02-06 11:54:00,
2013-02-06 05:59:00,5.0,2.7,30.07,SE,144,0.0,2.0,90,0.00,,OVC090,0.00,VWS V14.01,2013-02-06 11:59:00,
2013-02-06 06:04:00,5.4,3.1,30.07,South,171,0.0,1.0,90,0.00,,,0.00,VWS V14.01,2013-02-06 12:04:00,
2013-02-06 06:09:00,5.5,3.2,30.06,SSE,152,0.0,0.0,90,0.00,,,0.00,VWS V14.01,2013-02-06 12:09:00,
2013-02-06 06:14:00,5.8,3.5,30.06,SSE,158,0.0,0.0,90,0.00,,,0.00,VWS V14.01,2013-02-06 12:14:00,
2013-02-06 06:19:00,6.0,3.7,30.07,SSE,158,0.0,1.0,90,0.00,,,0.00,VWS V14.01,2013-02-06 12:19:00,
2013-02-06 06:25:00,6.2,3.9,30.06,SSE,157,0.0,1.0,90,0.00,,CLR,0.00,VWS V14.01,2013-02-06 12:25:00,
2013-02-06 06:31:00,6.4,4.1,30.06,SSE,148,0.0,0.0,90,0.00,,CLR,0.00,VWS V14.01,2013-02-06 12:31:00,
2013-02-06 06:37:00,6.5,4.2,30.06,SSE,147,0.0,0.0,90,0.00,,CLR,0.00,VWS V14.01,2013-02-06 12:37:00,
2013-02-06 06:42:00,6.6,4.3,30.05,SSE,148,0.0,0.0,90,0.00,,CLR,0.00,VWS V14.01,2013-02-06 12:42:00,
2013-02-06 06:47:00,6.7,4.4,30.04,SSE,147,0.0,0.0,90,0.00,,CLR,0.00,VWS V14.01,2013-02-06 12:47:00,
2013-02-06 06:53:00,6.8,4.5,30.04,SSE,147,0.0,0.0,90,0.00,,CLR,0.00,VWS V14.01,2013-02-06 12:53:00,
2013-02-06 06:58:00,6.9,4.6,30.05,SSE,148,0.0,0.0,90,0.00,,CLR,0.00,VWS V14.01,2013-02-06 12:58:00,
2013-02-06 07:03:00,7.1,4.8,30.04,SSE,148,0.0,0.0,90,0.00,,CLR,0.00,VWS V14.01,2013-02-06 13:03:00,
2013-02-06 07:08:00,7.3,5.0,30.03,SSE,148,0.0,0.0,90,0.00,,CLR,0.00,VWS V14.01,2013-02-06 13:08:00,
2013-02-06 07:13:00,7.5,5.2,30.03,SSE,148,0.0,0.0,90,0.00,,CLR,0.00,VWS V14.01,2013-02-06 13:13:00,
2013-02-06 07:18:00,7.6,5.3,30.03,SSE,148,0.0,0.0,90,0.00,,CLR,0.00,VWS V14.01,2013-02-06 13:18:00,
2013-02-06 07:23:00,7.7,5.4,30.03,SSE,148,0.0,0.0,90,0.00,,CLR,0.00,VWS V14.01,2013-02-06 13:23:00,
2013-02-06 07:28:00,7.9,7.9,30.04,SSE,148,0.0,0.0,100,0.00,,CLR,0.00,VWS V14.01,2013-02-06 13:28:00,
2013-02-06 07:33:00,8.0,5.7,30.03,SSE,147,0.0,0.0,90,0.00,,CLR,0.00,VWS V14.01,2013-02-06 13:33:00,
2013-02-06 07:39:00,8.2,6.1,30.04,SSE,147,1.0,2.0,91,0.00,,CLR,0.00,VWS V14.01,2013-02-06 13:39:00,
2013-02-06 07:44:00,8.5,6.4,30.05,SSE,150,0.0,0.0,91,0.00,,CLR,0.00,VWS V14.01,2013-02-06 13:44:00,
2013-02-06 07:49:00,8.8,6.7,30.04,SSE,150,0.0,0.0,91,0.00,,CLR,0.00,VWS V14.01,2013-02-06 13:49:00,
2013-02-06 07:55:00,9.0,6.9,30.05,SSE,150,0.0,0.0,91,0.00,,CLR,0.00,VWS V14.01,2013-02-06 13:55:00,
2013-02-06 08:00:00,9.3,7.2,30.04,SSE,150,0.0,0.0,91,0.00,,CLR,0.00,VWS V14.01,2013-02-06 14:00:00,
2013-02-06 08:05:00,9.5,7.4,30.04,SSE,150,0.0,0.0,91,0.00,,CLR,0.00,VWS V14.01,2013-02-06 14:05:00,
2013-02-06 08:10:00,9.8,7.7,30.05,SSE,150,0.0,0.0,91,0.00,,CLR,0.00,VWS V14.01,2013-02-06 14:10:00,
2013-02-06 08:15:00,10.0,7.9,30.05,SSE,150,2.0,2.0,91,0.00,,CLR,0.00,VWS V14.01,2013-02-06 14:15:00,
2013-02-06 08:20:00,10.2,8.1,30.05,South,172,0.0,0.0,91,0.00,,CLR,0.00,VWS V14.01,2013-02-06 14:20:00,
2013-02-06 08:25:00,10.5,8.4,30.05,South,171,0.0,1.0,91,0.00,,CLR,0.00,VWS V14.01,2013-02-06 14:25:00,
2013-02-06 08:31:00,10.8,8.7,30.05,SSE,148,0.0,0.0,91,0.00,,SCT080,0.00,VWS V14.01,2013-02-06 14:31:00,
2013-02-06 08:36:00,11.2,9.1,30.05,SSE,148,1.0,2.0,91,0.00,,SCT080,0.00,VWS V14.01,2013-02-06 14:36:00,
2013-02-06 08:42:00,11.5,9.4,30.05,SSE,162,0.0,0.0,91,0.00,,SCT080,0.00,VWS V14.01,2013-02-06 14:42:00,
2013-02-06 08:47:00,11.9,9.8,30.05,SE,132,0.0,2.0,91,0.00,,SCT080,0.00,VWS V14.01,2013-02-06 14:47:00,
2013-02-06 08:52:00,12.3,10.2,30.04,SE,132,1.0,1.0,91,0.00,,SCT080,0.00,VWS V14.01,2013-02-06 14:52:00,
2013-02-06 08:57:00,12.7,10.8,30.05,SE,132,0.0,0.0,92,0.00,,SCT080,0.00,VWS V14.01,2013-02-06 14:57:00,
2013-02-06 09:02:00,13.2,11.3,30.04,SE,132,0.0,0.0,92,0.00,,SCT080,0.00,VWS V14.01,2013-02-06 15:02:00,
2013-02-06 09:08:00,13.7,11.8,30.04,SE,132,0.0,1.0,92,0.00,,SCT080,0.00,VWS V14.01,2013-02-06 15:08:00,
2013-02-06 09:13:00,14.1,12.2,30.04,SE,132,0.0,0.0,92,0.00,,SCT080,0.00,VWS V14.01,2013-02-06 15:13:00,
2013-02-06 09:19:00,14.6,12.7,30.04,SE,132,0.0,0.0,92,0.00,,SCT080,0.00,VWS V14.01,2013-02-06 15:19:00,
2013-02-06 09:25:00,15.0,13.1,30.04,SE,132,0.0,0.0,92,0.00,,SCT080,0.00,VWS V14.01,2013-02-06 15:25:00,
2013-02-06 09:30:00,15.3,13.4,30.04,SE,132,0.0,0.0,92,0.00,,SCT080,0.00,VWS V14.01,2013-02-06 15:30:00,
2013-02-06 09:36:00,15.7,13.8,30.04,SE,132,0.0,0.0,92,0.00,,CLR,0.00,VWS V14.01,2013-02-06 15:36:00,
2013-02-06 09:41:00,16.1,14.2,30.04,SE,132,0.0,0.0,92,0.00,,SCT045,0.00,VWS V14.01,2013-02-06 15:41:00,
2013-02-06 09:46:00,16.2,14.3,30.04,SE,132,0.0,0.0,92,0.00,,SCT045,0.00,VWS V14.01,2013-02-06 15:46:00,
2013-02-06 09:52:00,16.3,14.1,30.05,SE,132,0.0,0.0,91,0.00,,SCT045,0.00,VWS V14.01,2013-02-06 15:52:00,
2013-02-06 09:57:00,16.3,14.1,30.05,SE,132,0.0,0.0,91,0.00,,SCT045,0.00,VWS V14.01,2013-02-06 15:57:00,
2013-02-06 10:02:00,16.5,14.3,30.04,SE,132,0.0,0.0,91,0.00,,SCT040,0.00,VWS V14.01,2013-02-06 16:02:00,
2013-02-06 10:07:00,16.5,14.3,30.04,SE,132,0.0,0.0,91,0.00,,SCT040,0.00,VWS V14.01,2013-02-06 16:07:00,
2013-02-06 10:12:00,16.6,14.4,30.04,SE,132,0.0,0.0,91,0.00,,SCT040,0.00,VWS V14.01,2013-02-06 16:12:00,
2013-02-06 10:17:00,16.8,14.6,30.04,SE,132,0.0,0.0,91,0.00,,SCT040,0.00,VWS V14.01,2013-02-06 16:17:00,
2013-02-06 10:23:00,17.0,14.8,30.03,SE,132,0.0,0.0,91,0.00,,,0.00,VWS V14.01,2013-02-06 16:23:00,
2013-02-06 10:28:00,17.3,15.1,30.03,East,101,0.0,0.0,91,0.00,,,0.00,VWS V14.01,2013-02-06 16:28:00,
2013-02-06 10:34:00,17.4,15.0,30.02,East,98,0.0,0.0,90,0.00,,,0.00,VWS V14.01,2013-02-06 16:34:00,
2013-02-06 10:39:00,17.5,15.1,30.02,East,98,0.0,0.0,90,0.00,,,0.00,VWS V14.01,2013-02-06 16:39:00,
2013-02-06 10:45:00,17.7,15.3,30.02,East,88,0.0,5.0,90,0.00,,,0.00,VWS V14.01,2013-02-06 16:45:00,
2013-02-06 10:50:00,17.9,15.2,30.02,East,94,1.0,4.0,89,0.00,,,0.00,VWS V14.01,2013-02-06 16:50:00,
2013-02-06 10:55:00,18.1,15.4,30.02,East,94,1.0,2.0,89,0.00,,,0.00,VWS V14.01,2013-02-06 16:55:00,
2013-02-06 11:00:00,18.5,15.8,30.02,East,95,0.0,0.0,89,0.00,,,0.00,VWS V14.01,2013-02-06 17:00:00,
2013-02-06 11:05:00,18.9,16.2,30.02,East,79,0.0,1.0,89,0.00,,,0.00,VWS V14.01,2013-02-06 17:05:00,
2013-02-06 11:10:00,19.3,16.6,30.02,East,97,0.0,0.0,89,0.00,,,0.00,VWS V14.01,2013-02-06 17:10:00,
2013-02-06 11:15:00,19.8,17.1,30.02,East,95,0.0,4.0,89,0.00,,,0.00,VWS V14.01,2013-02-06 17:15:00,
2013-02-06 11:21:00,20.3,17.3,30.01,East,95,0.0,1.0,88,0.00,,,0.00,VWS V14.01,2013-02-06 17:21:00,
2013-02-06 11:26:00,20.6,17.4,30.01,ESE,110,2.0,2.0,87,0.00,,,0.00,VWS V14.01,2013-02-06 17:26:00,
2013-02-06 11:31:00,20.8,17.5,30.00,ESE,103,0.0,0.0,87,0.00,,,0.00,VWS V14.01,2013-02-06 17:31:00,
2013-02-06 11:37:00,21.1,17.8,29.99,East,95,0.0,1.0,87,0.00,,,0.00,VWS V14.01,2013-02-06 17:37:00,
2013-02-06 11:42:00,21.3,17.8,29.99,East,93,0.0,7.0,86,0.00,,,0.00,VWS V14.01,2013-02-06 17:42:00,
2013-02-06 11:47:00,21.6,18.1,29.99,East,96,5.0,5.0,86,0.00,,,0.00,VWS V14.01,2013-02-06 17:47:00,
2013-02-06 11:53:00,22.1,18.6,29.98,East,88,0.0,6.0,86,0.00,,,0.00,VWS V14.01,2013-02-06 17:53:00,
2013-02-06 11:58:00,22.7,18.9,29.98,East,90,0.0,6.0,85,0.00,,,0.00,VWS V14.01,2013-02-06 17:58:00,
2013-02-06 12:04:00,23.3,19.2,29.97,East,90,0.0,1.0,84,0.00,,,0.00,VWS V14.01,2013-02-06 18:04:00,
2013-02-06 12:09:00,23.6,19.5,29.97,East,91,0.0,5.0,84,0.00,,,0.00,VWS V14.01,2013-02-06 18:09:00,
2013-02-06 12:14:00,23.7,19.3,29.97,East,92,0.0,0.0,83,0.00,,,0.00,VWS V14.01,2013-02-06 18:14:00,
2013-02-06 12:19:00,23.8,19.4,29.96,East,89,0.0,0.0,83,0.00,,,0.00,VWS V14.01,2013-02-06 18:19:00,
2013-02-06 12:24:00,24.0,19.9,29.95,East,88,0.0,1.0,84,0.00,,,0.00,VWS V14.01,2013-02-06 18:24:00,
2013-02-06 12:29:00,24.5,20.4,29.95,East,98,0.0,1.0,84,0.00,,,0.00,VWS V14.01,2013-02-06 18:29:00,
2013-02-06 12:35:00,25.1,21.0,29.95,East,88,1.0,3.0,84,0.00,,,0.00,VWS V14.01,2013-02-06 18:35:00,
2013-02-06 12:40:00,25.6,21.5,29.95,East,87,0.0,0.0,84,0.00,,,0.00,VWS V14.01,2013-02-06 18:40:00,
2013-02-06 12:45:00,26.1,21.6,29.95,East,85,0.0,4.0,83,0.00,,,0.00,VWS V14.01,2013-02-06 18:45:00,
2013-02-06 12:50:00,26.5,22.0,29.95,East,98,0.0,4.0,83,0.00,,,0.00,VWS V14.01,2013-02-06 18:50:00,
2013-02-06 12:56:00,26.9,22.4,29.94,East,82,0.0,0.0,83,0.00,,,0.00,VWS V14.01,2013-02-06 18:56:00,
2013-02-06 13:01:00,27.2,22.7,29.94,East,82,0.0,1.0,83,0.00,,,0.00,VWS V14.01,2013-02-06 19:01:00,
2013-02-06 13:07:00,27.8,23.3,29.94,East,82,0.0,0.0,83,0.00,,,0.00,VWS V14.01,2013-02-06 19:07:00,
2013-02-06 13:12:00,28.3,23.8,29.93,East,82,0.0,2.0,83,0.00,,,0.00,VWS V14.01,2013-02-06 19:12:00,
2013-02-06 13:18:00,28.7,23.6,29.92,ESE,102,0.0,0.0,81,0.00,,,0.00,VWS V14.01,2013-02-06 19:18:00,
2013-02-06 13:24:00,29.1,24.0,29.92,East,99,0.0,0.0,81,0.00,,,0.00,VWS V14.01,2013-02-06 19:24:00,
2013-02-06 13:29:00,29.5,24.4,29.92,ENE,65,0.0,0.0,81,0.00,,,0.00,VWS V14.01,2013-02-06 19:29:00,
2013-02-06 13:34:00,29.8,24.7,29.92,ESE,119,0.0,4.0,81,0.00,,,0.00,VWS V14.01,2013-02-06 19:34:00,
2013-02-06 13:40:00,30.4,25.0,29.91,ESE,113,0.0,0.0,80,0.00,,,0.00,VWS V14.01,2013-02-06 19:40:00,
2013-02-06 13:45:00,30.4,24.7,29.90,East,95,5.0,5.0,79,0.00,,OVC085,0.00,VWS V14.01,2013-02-06 19:45:00,
2013-02-06 13:50:00,30.3,24.6,29.90,East,96,0.0,2.0,79,0.00,,OVC085,0.00,VWS V14.01,2013-02-06 19:50:00,
2013-02-06 13:55:00,30.4,24.7,29.90,East,95,0.0,0.0,79,0.00,,OVC085,0.00,VWS V14.01,2013-02-06 19:55:00,
2013-02-06 14:00:00,30.6,24.9,29.91,East,95,0.0,0.0,79,0.00,,OVC085,0.00,VWS V14.01,2013-02-06 20:00:00,
2013-02-06 14:06:00,30.8,25.1,29.91,East,93,4.0,4.0,79,0.00,,OVC085,0.00,VWS V14.01,2013-02-06 20:06:00,
2013-02-06 14:11:00,30.9,25.2,29.91,East,93,0.0,0.0,79,0.00,,OVC085,0.00,VWS V14.01,2013-02-06 20:11:00,
2013-02-06 14:17:00,31.0,25.3,29.91,East,94,0.0,0.0,79,0.00,,OVC085,0.00,VWS V14.01,2013-02-06 20:17:00,
2013-02-06 14:23:00,31.1,25.4,29.92,East,93,0.0,0.0,79,0.00,,BKN060,0.00,VWS V14.01,2013-02-06 20:23:00,
2013-02-06 14:28:00,31.1,25.4,29.92,East,94,0.0,0.0,79,0.00,,BKN060,0.00,VWS V14.01,2013-02-06 20:28:00,
2013-02-06 14:33:00,31.1,25.4,29.92,East,94,0.0,0.0,79,0.00,,BKN060,0.00,VWS V14.01,2013-02-06 20:33:00,
2013-02-06 14:38:00,31.0,25.3,29.92,East,94,0.0,0.0,79,0.00,,BKN060,0.00,VWS V14.01,2013-02-06 20:38:00,
2013-02-06 14:43:00,30.9,25.2,29.92,East,94,0.0,0.0,79,0.00,,,0.00,VWS V14.01,2013-02-06 20:43:00,
2013-02-06 14:48:00,31.0,25.3,29.92,East,93,0.0,0.0,79,0.00,,,0.00,VWS V14.01,2013-02-06 20:48:00,
2013-02-06 14:53:00,31.1,25.4,29.92,East,93,0.0,0.0,79,0.00,,,0.00,VWS V14.01,2013-02-06 20:53:00,
2013-02-06 14:58:00,31.1,25.0,29.92,East,93,0.0,0.0,78,0.00,,,0.00,VWS V14.01,2013-02-06 20:58:00,
2013-02-06 15:03:00,31.1,25.0,29.92,East,93,0.0,0.0,78,0.00,,CLR,0.00,VWS V14.01,2013-02-06 21:03:00,
2013-02-06 15:08:00,31.0,25.3,29.91,East,94,0.0,0.0,79,0.00,,CLR,0.00,VWS V14.01,2013-02-06 21:08:00,
2013-02-06 15:13:00,31.0,25.6,29.91,East,94,0.0,0.0,80,0.00,,CLR,0.00,VWS V14.01,2013-02-06 21:13:00,
2013-02-06 15:18:00,31.0,25.6,29.91,East,93,0.0,0.0,80,0.00,,CLR,0.00,VWS V14.01,2013-02-06 21:18:00,
2013-02-06 15:24:00,31.0,25.3,29.90,East,94,0.0,0.0,79,0.00,,CLR,0.00,VWS V14.01,2013-02-06 21:24:00,
2013-02-06 15:29:00,31.0,25.3,29.90,East,93,0.0,0.0,79,0.00,,CLR,0.00,VWS V14.01,2013-02-06 21:29:00,
2013-02-06 15:34:00,31.0,25.3,29.90,East,94,0.0,0.0,79,0.00,,CLR,0.00,VWS V14.01,2013-02-06 21:34:00,
2013-02-06 15:39:00,30.9,25.2,29.90,East,93,0.0,0.0,79,0.00,,CLR,0.00,VWS V14.01,2013-02-06 21:39:00,
2013-02-06 15:45:00,30.8,25.1,29.90,East,94,0.0,1.0,79,0.00,,CLR,0.00,VWS V14.01,2013-02-06 21:45:00,
2013-02-06 15:50:00,30.8,25.4,29.90,East,93,0.0,0.0,80,0.00,,CLR,0.00,VWS V14.01,2013-02-06 21:50:00,
2013-02-06 15:55:00,30.7,25.3,29.90,East,93,0.0,0.0,80,0.00,,CLR,0.00,VWS V14.01,2013-02-06 21:55:00,
2013-02-06 16:00:00,30.7,25.3,29.90,East,93,0.0,0.0,80,0.00,,CLR,0.00,VWS V14.01,2013-02-06 22:00:00,
2013-02-06 16:05:00,30.5,24.8,29.90,East,93,0.0,0.0,79,0.00,,CLR,0.00,VWS V14.01,2013-02-06 22:05:00,
2013-02-06 16:10:00,30.1,24.4,29.90,East,93,0.0,0.0,79,0.00,,CLR,0.00,VWS V14.01,2013-02-06 22:10:00,
2013-02-06 16:15:00,29.7,24.0,29.89,East,93,0.0,0.0,79,0.00,,CLR,0.00,VWS V14.01,2013-02-06 22:15:00,
2013-02-06 16:21:00,29.4,24.0,29.90,East,93,0.0,0.0,80,0.00,,CLR,0.00,VWS V14.01,2013-02-06 22:21:00,
2013-02-06 16:26:00,29.3,24.2,29.90,East,93,0.0,0.0,81,0.00,,CLR,0.00,VWS V14.01,2013-02-06 22:26:00,
2013-02-06 16:31:00,29.2,24.1,29.90,East,93,0.0,0.0,81,0.00,,CLR,0.00,VWS V14.01,2013-02-06 22:31:00,
2013-02-06 16:37:00,29.0,24.2,29.90,East,93,0.0,0.0,82,0.00,,CLR,0.00,VWS V14.01,2013-02-06 22:37:00,
2013-02-06 16:43:00,28.9,24.1,29.90,East,93,0.0,0.0,82,0.00,,CLR,0.00,VWS V14.01,2013-02-06 22:43:00,
2013-02-06 16:48:00,28.9,24.4,29.90,East,93,0.0,0.0,83,0.00,,CLR,0.00,VWS V14.01,2013-02-06 22:48:00,
2013-02-06 16:54:00,28.7,24.2,29.90,East,93,0.0,0.0,83,0.00,,CLR,0.00,VWS V14.01,2013-02-06 22:54:00,
2013-02-06 16:59:00,28.6,24.1,29.90,East,93,0.0,1.0,83,0.00,,CLR,0.00,VWS V14.01,2013-02-06 22:59:00,
2013-02-06 17:04:00,28.5,24.0,29.90,East,93,0.0,0.0,83,0.00,,CLR,0.00,VWS V14.01,2013-02-06 23:04:00,
2013-02-06 17:09:00,28.3,24.1,29.90,East,93,0.0,0.0,84,0.00,,CLR,0.00,VWS V14.01,2013-02-06 23:09:00,
2013-02-06 17:14:00,28.2,24.0,29.90,East,93,0.0,0.0,84,0.00,,CLR,0.00,VWS V14.01,2013-02-06 23:14:00,
2013-02-06 17:19:00,28.0,23.8,29.90,East,93,1.0,2.0,84,0.00,,CLR,0.00,VWS V14.01,2013-02-06 23:19:00,
2013-02-06 17:24:00,27.8,23.6,29.90,East,93,0.0,0.0,84,0.00,,CLR,0.00,VWS V14.01,2013-02-06 23:24:00,
2013-02-06 17:30:00,27.6,23.4,29.90,East,93,0.0,0.0,84,0.00,,CLR,0.00,VWS V14.01,2013-02-06 23:30:00,
2013-02-06 17:35:00,27.5,23.6,29.90,East,93,0.0,0.0,85,0.00,,CLR,0.00,VWS V14.01,2013-02-06 23:35:00,
2013-02-06 17:40:00,27.4,23.5,29.90,East,93,0.0,0.0,85,0.00,,CLR,0.00,VWS V14.01,2013-02-06 23:40:00,
2013-02-06 17:45:00,27.3,23.4,29.90,East,93,0.0,2.0,85,0.00,,CLR,0.00,VWS V14.01,2013-02-06 23:45:00,
2013-02-06 17:50:00,27.2,23.6,29.90,East,93,0.0,0.0,86,0.00,,CLR,0.00,VWS V14.01,2013-02-06 23:50:00,
2013-02-06 17:55:00,27.1,23.5,29.90,East,93,0.0,0.0,86,0.00,,CLR,0.00,VWS V14.01,2013-02-06 23:55:00,
2013-02-06 18:00:00,27.1,23.5,29.90,East,93,0.0,0.0,86,0.00,,CLR,0.00,VWS V14.01,2013-02-07 00:00:00,
2013-02-06 18:05:00,27.0,23.4,29.91,East,93,0.0,0.0,86,0.00,,,0.00,VWS V14.01,2013-02-07 00:05:00,
2013-02-06 18:11:00,26.8,23.2,29.90,East,93,0.0,0.0,86,0.00,,,0.00,VWS V14.01,2013-02-07 00:11:00,
2013-02-06 18:16:00,26.7,23.1,29.90,East,93,0.0,0.0,86,0.00,,,0.00,VWS V14.01,2013-02-07 00:16:00,
2013-02-06 18:21:00,26.5,22.9,29.90,East,93,0.0,0.0,86,0.00,,,0.00,VWS V14.01,2013-02-07 00:21:00,
2013-02-06 18:27:00,26.5,23.2,29.90,East,93,0.0,0.0,87,0.00,,,0.00,VWS V14.01,2013-02-07 00:27:00,
2013-02-06 18:33:00,26.4,23.1,29.90,East,93,0.0,4.0,87,0.00,,,0.00,VWS V14.01,2013-02-07 00:33:00,
2013-02-06 18:39:00,26.3,23.0,29.90,East,93,0.0,0.0,87,0.00,,,0.00,VWS V14.01,2013-02-07 00:39:00,
2013-02-06 18:44:00,26.3,23.0,29.90,East,93,0.0,0.0,87,0.00,,,0.00,VWS V14.01,2013-02-07 00:44:00,
2013-02-06 18:49:00,26.2,23.1,29.90,East,94,0.0,0.0,88,0.00,,,0.00,VWS V14.01,2013-02-07 00:49:00,
2013-02-06 18:55:00,26.1,23.0,29.90,East,93,0.0,0.0,88,0.00,,,0.00,VWS V14.01,2013-02-07 00:55:00,
2013-02-06 19:00:00,26.1,23.0,29.90,East,93,0.0,0.0,88,0.00,,,0.00,VWS V14.01,2013-02-07 01:00:00,
2013-02-06 19:05:00,26.1,23.0,29.91,East,93,0.0,0.0,88,0.00,,,0.00,VWS V14.01,2013-02-07 01:05:00,
2013-02-06 19:11:00,26.1,23.0,29.91,East,93,0.0,0.0,88,0.00,,,0.00,VWS V14.01,2013-02-07 01:11:00,
2013-02-06 19:17:00,26.1,23.3,29.91,East,93,0.0,0.0,89,0.00,,,0.00,VWS V14.01,2013-02-07 01:17:00,
2013-02-06 19:22:00,26.2,23.4,29.91,East,93,0.0,0.0,89,0.00,,,0.00,VWS V14.01,2013-02-07 01:22:00,
2013-02-06 19:27:00,26.1,23.3,29.91,East,93,0.0,0.0,89,0.00,,,0.00,VWS V14.01,2013-02-07 01:27:00,
2013-02-06 19:32:00,26.1,23.3,29.91,East,94,0.0,0.0,89,0.00,,,0.00,VWS V14.01,2013-02-07 01:32:00,
2013-02-06 19:37:00,26.2,23.4,29.91,East,93,0.0,0.0,89,0.00,,,0.00,VWS V14.01,2013-02-07 01:37:00,
2013-02-06 19:42:00,26.2,23.4,29.92,East,93,0.0,0.0,89,0.00,,,0.00,VWS V14.01,2013-02-07 01:42:00,
2013-02-06 19:47:00,26.2,23.4,29.92,East,93,0.0,0.0,89,0.00,,,0.00,VWS V14.01,2013-02-07 01:47:00,
2013-02-06 19:52:00,26.2,23.4,29.92,East,93,0.0,0.0,89,0.00,,,0.00,VWS V14.01,2013-02-07 01:52:00,
2013-02-06 19:57:00,26.2,23.4,29.92,East,93,0.0,0.0,89,0.00,,,0.00,VWS V14.01,2013-02-07 01:57:00,
2013-02-06 20:03:00,26.2,23.4,29.92,East,93,0.0,0.0,89,0.00,,,0.00,VWS V14.01,2013-02-07 02:03:00,
2013-02-06 20:08:00,26.2,23.4,29.92,East,93,0.0,0.0,89,0.00,,,0.00,VWS V14.01,2013-02-07 02:08:00,
2013-02-06 20:14:00,26.2,23.4,29.92,East,93,0.0,0.0,89,0.00,,,0.00,VWS V14.01,2013-02-07 02:14:00,
2013-02-06 20:19:00,26.2,23.4,29.92,East,93,0.0,0.0,89,0.00,,,0.00,VWS V14.01,2013-02-07 02:19:00,
2013-02-06 20:25:00,26.2,23.7,29.92,East,93,0.0,0.0,90,0.00,,,0.00,VWS V14.01,2013-02-07 02:25:00,
2013-02-06 20:30:00,26.1,23.6,29.92,East,93,0.0,0.0,90,0.00,,,0.00,VWS V14.01,2013-02-07 02:30:00,
2013-02-06 20:36:00,26.2,23.7,29.93,East,93,0.0,0.0,90,0.00,,,0.00,VWS V14.01,2013-02-07 02:36:00,
2013-02-06 20:41:00,26.2,23.7,29.93,East,94,0.0,0.0,90,0.00,,,0.00,VWS V14.01,2013-02-07 02:41:00,
2013-02-06 20:46:00,26.2,23.7,29.93,East,93,0.0,0.0,90,0.00,,,0.00,VWS V14.01,2013-02-07 02:46:00,
2013-02-06 20:52:00,26.2,23.7,29.93,East,93,0.0,0.0,90,0.00,,,0.00,VWS V14.01,2013-02-07 02:52:00,
2013-02-06 20:57:00,26.2,23.7,29.93,East,93,0.0,0.0,90,0.00,,,0.00,VWS V14.01,2013-02-07 02:57:00,
2013-02-06 21:02:00,26.1,23.6,29.93,East,93,0.0,0.0,90,0.00,,,0.00,VWS V14.01,2013-02-07 03:02:00,
2013-02-06 21:07:00,26.1,23.6,29.93,East,93,0.0,0.0,90,0.00,,,0.00,VWS V14.01,2013-02-07 03:07:00,
2013-02-06 21:12:00,26.0,23.5,29.93,East,93,0.0,0.0,90,0.00,,,0.00,VWS V14.01,2013-02-07 03:12:00,
2013-02-06 21:17:00,26.0,23.5,29.93,East,93,0.0,0.0,90,0.00,,,0.00,VWS V14.01,2013-02-07 03:17:00,
2013-02-06 21:22:00,25.9,23.4,29.93,East,93,0.0,0.0,90,0.00,,,0.00,VWS V14.01,2013-02-07 03:22:00,
2013-02-06 21:27:00,25.8,23.3,29.93,East,93,0.0,0.0,90,0.00,,,0.00,VWS V14.01,2013-02-07 03:27:00,
2013-02-06 21:32:00,25.8,23.3,29.93,East,93,0.0,0.0,90,0.00,,,0.00,VWS V14.01,2013-02-07 03:32:00,
2013-02-06 21:37:00,25.8,23.5,29.93,East,93,0.0,0.0,91,0.00,,,0.00,VWS V14.01,2013-02-07 03:37:00,
2013-02-06 21:42:00,25.7,23.4,29.93,East,93,0.0,0.0,91,0.00,,,0.00,VWS V14.01,2013-02-07 03:42:00,
2013-02-06 21:47:00,25.8,23.5,29.93,East,93,0.0,0.0,91,0.00,,,0.00,VWS V14.01,2013-02-07 03:47:00,
2013-02-06 21:54:00,25.8,23.5,29.93,East,93,0.0,0.0,91,0.00,,,0.00,VWS V14.01,2013-02-07 03:54:00,
2013-02-06 21:59:00,25.8,23.5,29.93,East,93,0.0,0.0,91,0.00,,,0.00,VWS V14.01,2013-02-07 03:59:00,
2013-02-06 22:04:00,25.8,23.5,29.93,East,93,0.0,0.0,91,0.00,,,0.00,VWS V14.01,2013-02-07 04:04:00,
2013-02-06 22:09:00,25.7,23.4,29.93,East,93,0.0,0.0,91,0.00,,,0.00,VWS V14.01,2013-02-07 04:09:00,
2013-02-06 22:14:00,25.6,23.3,29.93,East,93,0.0,0.0,91,0.00,,,0.00,VWS V14.01,2013-02-07 04:14:00,
2013-02-06 22:19:00,25.5,23.2,29.93,East,93,0.0,0.0,91,0.00,,,0.00,VWS V14.01,2013-02-07 04:19:00,
2013-02-06 22:24:00,25.5,23.2,29.92,East,93,0.0,0.0,91,0.00,,,0.00,VWS V14.01,2013-02-07 04:24:00,
2013-02-06 22:29:00,25.5,23.2,29.93,East,93,0.0,0.0,91,0.00,,,0.00,VWS V14.01,2013-02-07 04:29:00,
2013-02-06 22:34:00,25.4,23.1,29.93,East,93,0.0,0.0,91,0.00,,,0.00,VWS V14.01,2013-02-07 04:34:00,
2013-02-06 22:39:00,25.3,23.0,29.93,East,93,0.0,0.0,91,0.00,,,0.00,VWS V14.01,2013-02-07 04:39:00,
2013-02-06 22:45:00,25.2,23.2,29.94,East,93,0.0,0.0,92,0.00,,,0.00,VWS V14.01,2013-02-07 04:45:00,
2013-02-06 22:50:00,25.2,23.2,29.93,East,93,0.0,0.0,92,0.00,,,0.00,VWS V14.01,2013-02-07 04:50:00,
2013-02-06 22:55:00,25.3,23.3,29.93,East,93,0.0,0.0,92,0.00,,,0.00,VWS V14.01,2013-02-07 04:55:00,
2013-02-06 23:00:00,25.3,23.3,29.93,East,94,0.0,0.0,92,0.00,,,0.00,VWS V14.01,2013-02-07 05:00:00,
2013-02-06 23:02:00,25.3,23.3,29.93,East,93,0.0,0.0,92,0.00,,,0.00,VWS V14.01,2013-02-07 05:02:00,
2013-02-06 23:04:00,25.3,23.3,29.93,East,93,0.0,0.0,92,0.00,,,0.00,VWS V14.01,2013-02-07 05:04:00,
2013-02-06 23:09:00,25.3,23.3,29.93,East,93,0.0,0.0,92,0.00,,,0.00,VWS V14.01,2013-02-07 05:09:00,
2013-02-06 23:14:00,25.1,23.1,29.93,East,93,0.0,0.0,92,0.00,,,0.00,VWS V14.01,2013-02-07 05:14:00,
2013-02-06 23:19:00,24.9,22.9,29.93,East,93,0.0,0.0,92,0.00,,,0.00,VWS V14.01,2013-02-07 05:19:00,
2013-02-06 23:24:00,24.8,23.1,29.93,East,93,0.0,0.0,93,0.00,,,0.00,VWS V14.01,2013-02-07 05:24:00,
2013-02-06 23:29:00,24.8,23.1,29.93,East,93,0.0,0.0,93,0.00,,,0.00,VWS V14.01,2013-02-07 05:29:00,
2013-02-06 23:34:00,24.8,23.1,29.93,East,93,0.0,0.0,93,0.00,,,0.00,VWS V14.01,2013-02-07 05:34:00,
2013-02-06 23:40:00,24.8,23.1,29.93,East,93,0.0,0.0,93,0.00,,,0.00,VWS V14.01,2013-02-07 05:40:00,
2013-02-06 23:45:00,24.7,23.0,29.93,East,93,0.0,0.0,93,0.00,,,0.00,VWS V14.01,2013-02-07 05:45:00,
2013-02-06 23:51:00,24.7,23.0,29.94,East,94,0.0,0.0,93,0.00,,,0.00,VWS V14.01,2013-02-07 05:51:00,
2013-02-06 23:56:00,24.5,22.8,29.94,East,93,0.0,0.0,93,0.00,,,0.00,VWS V14.01,2013-02-07 05:56:00,